Time;durP1;ratioP1;P1;durP2;ratioP2;P2;SDS_P1;SDS_P2;PMS_P1;PMS_P2;Temp;Humidity;BMP_temperature;BMP_pressure;BME280_temperature;BME280_humidity;BME280_pressure;Samples;Min_cycle;Max_cycle;Signal;HPM_P1;HPM_P2
2023/04/04 00:01:39;;;;;;;;;;;;;;;;;;5052068;28;19944;-59
2023/04/04 00:04:05;;;;;;;;;;;;;;;;;;5054435;28;19916;-57
2023/04/04 00:06:31;;;;;;;;;;;;;;;;;;5054958;28;19964;-59
2023/04/04 00:08:57;;;;;;;;;;;;;;;;;;5054870;28;19994;-58
2023/04/04 00:11:23;;;;;;;;;;;;;;;;;;5054137;28;19998;-58
2023/04/04 00:13:49;;;;;;;;;;;;;;;;;;5054847;28;19929;-58
2023/04/04 00:16:15;;;;;;;;;;;;;;;;;;5054661;28;19939;-59
2023/04/04 00:18:41;;;;;;;;;;;;;;;;;;5054057;28;19964;-59
2023/04/04 00:21:07;;;;;;;;;;;;;;;;;;5054645;28;20004;-59
2023/04/04 00:23:32;;;;;;;;;;;;;;;;;;5054001;28;19925;-59
2023/04/04 00:25:58;;;;;;;;;;;;;;;;;;5053721;28;20401;-59
2023/04/04 00:28:24;;;;;;;;;;;;;;;;;;5054514;28;19920;-58
2023/04/04 00:30:51;;;;;;;;;;;;;;;;;;5054412;28;20050;-58
2023/04/04 00:33:17;;;;;;;;;;;;;;;;;;5053863;28;20325;-58
2023/04/04 00:35:43;;;;;;;;;;;;;;;;;;5054427;28;20494;-58
2023/04/04 00:38:09;;;;;;;;;;;;;;;;;;5054316;28;19920;-58
2023/04/04 00:40:35;;;;;;;;;;;;;;;;;;5053608;28;19995;-57
2023/04/04 00:43:02;;;;;;;;;;;;;;;;;;5054264;28;19920;-58
2023/04/04 00:45:27;;;;;;;;;;;;;;;;;;5054163;28;19921;-59
2023/04/04 00:47:53;;;;;;;;;;;;;;;;;;5053589;28;20738;-58
2023/04/04 00:50:19;;;;;;;;;;;;;;;;;;5054093;28;19955;-59
2023/04/04 00:52:46;;;;;;;;;;;;;;;;;;5054202;28;19919;-59
2023/04/04 00:55:11;;;;;;;;;;;;;;;;;;5053527;28;19942;-59
2023/04/04 00:57:37;;;;;;;;;;;;;;;;;;5054016;28;19925;-59
2023/04/04 01:00:04;;;;;;;;;;;;;;;;;;5053875;28;19939;-58
2023/04/04 01:02:30;;;;;;;;;;;;;;;;;;5053385;28;19928;-58
2023/04/04 01:04:56;;;;;;;;;;;;;;;;;;5053835;28;19921;-56
2023/04/04 01:07:22;;;;;;;;;;;;;;;;;;5053700;28;19921;-58
2023/04/04 01:09:48;;;;;;;;;;;;;;;;;;5053315;28;19920;-59
2023/04/04 01:12:14;;;;;;;;;;;;;;;;;;5053667;28;19921;-58
2023/04/04 01:14:40;;;;;;;;;;;;;;;;;;5052667;28;19927;-58
2023/04/04 01:17:06;;;;;;;;;;;;;;;;;;5053558;28;19921;-58
2023/04/04 01:19:32;;;;;;;;;;;;;;;;;;5052914;28;19936;-59
2023/04/04 01:21:58;;;;;;;;;;;;;;;;;;5053280;28;19939;-59
2023/04/04 01:24:24;;;;;;;;;;;;;;;;;;5053158;28;19917;-59
2023/04/04 01:26:50;;;;;;;;;;;;;;;;;;5052624;28;19920;-59
2023/04/04 01:29:16;;;;;;;;;;;;;;;;;;5053401;28;19960;-58
2023/04/04 01:31:42;;;;;;;;;;;;;;;;;;5053196;28;19946;-59
2023/04/04 01:34:08;;;;;;;;;;;;;;;;;;5052675;28;19920;-58
2023/04/04 01:36:34;;;;;;;;;;;;;;;;;;5053381;28;19917;-58
2023/04/04 01:39:00;;;;;;;;;;;;;;;;;;5053134;28;19917;-56
2023/04/04 01:41:26;;;;;;;;;;;;;;;;;;5052561;28;19962;-58
2023/04/04 01:43:52;;;;;;;;;;;;;;;;;;5053114;28;20609;-56
2023/04/04 01:46:18;;;;;;;;;;;;;;;;;;5053091;28;19924;-57
2023/04/04 01:48:44;;;;;;;;;;;;;;;;;;5052445;28;19986;-58
2023/04/04 01:51:10;;;;;;;;;;;;;;;;;;5052823;28;19975;-59
2023/04/04 01:53:36;;;;;;;;;;;;;;;;;;5052905;28;19940;-59
2023/04/04 01:56:02;;;;;;;;;;;;;;;;;;5051969;28;19963;-59
2023/04/04 01:58:28;;;;;;;;;;;;;;;;;;5052790;28;19925;-59
2023/04/04 02:00:55;;;;;;;;;;;;;;;;;;5052788;28;20257;-58
2023/04/04 02:03:21;;;;;;;;;;;;;;;;;;5052285;28;19920;-58
2023/04/04 02:05:47;;;;;;;;;;;;;;;;;;5052668;28;19944;-58
2023/04/04 02:08:14;;;;;;;;;;;;;;;;;;5052446;28;19920;-58
2023/04/04 02:10:40;;;;;;;;;;;;;;;;;;5051982;28;19921;-58
2023/04/04 02:13:06;;;;;;;;;;;;;;;;;;5052765;28;19916;-58
2023/04/04 02:15:32;;;;;;;;;;;;;;;;;;5052566;28;20386;-58
2023/04/04 02:17:58;;;;;;;;;;;;;;;;;;5034260;28;20011;-59
2023/04/04 02:20:24;;;;;;;;;;;;;;;;;;5034538;28;19916;-59
2023/04/04 02:22:50;;;;;;;;;;;;;;;;;;5052293;28;19989;-59
2023/04/04 02:25:16;;;;;;;;;;;;;;;;;;5051278;28;19924;-59
2023/04/04 02:27:42;;;;;;;;;;;;;;;;;;5052346;28;20263;-58
2023/04/04 02:30:08;;;;;;;;;;;;;;;;;;5052070;28;19917;-59
2023/04/04 02:32:34;;;;;;;;;;;;;;;;;;5051752;28;19916;-58
2023/04/04 02:35:00;;;;;;;;;;;;;;;;;;5052193;28;19971;-58
2023/04/04 02:37:26;;;;;;;;;;;;;;;;;;5052160;28;19959;-58
2023/04/04 02:39:52;;;;;;;;;;;;;;;;;;5051302;28;19921;-58
2023/04/04 02:42:18;;;;;;;;;;;;;;;;;;5034013;28;19921;-56
2023/04/04 02:44:44;;;;;;;;;;;;;;;;;;5051805;28;20019;-58
2023/04/04 02:47:10;;;;;;;;;;;;;;;;;;5051361;28;20377;-57
2023/04/04 02:49:37;;;;;;;;;;;;;;;;;;5051799;28;19927;-58
2023/04/04 02:52:03;;;;;;;;;;;;;;;;;;5051577;28;19917;-59
2023/04/04 02:54:29;;;;;;;;;;;;;;;;;;5050835;28;19932;-59
2023/04/04 02:56:55;;;;;;;;;;;;;;;;;;5034102;28;20007;-59
2023/04/04 02:59:21;;;;;;;;;;;;;;;;;;5051735;28;19926;-59
2023/04/04 03:01:47;;;;;;;;;;;;;;;;;;5051101;28;20438;-57
2023/04/04 03:04:13;;;;;;;;;;;;;;;;;;5051501;28;19917;-57
2023/04/04 03:06:40;;;;;;;;;;;;;;;;;;5051200;28;19970;-58
2023/04/04 03:09:06;;;;;;;;;;;;;;;;;;5050749;28;19923;-59
2023/04/04 03:11:32;;;;;;;;;;;;;;;;;;5051458;28;19916;-58
2023/04/04 03:13:58;;;;;;;;;;;;;;;;;;5051611;28;19948;-59
2023/04/04 03:16:24;;;;;;;;;;;;;;;;;;5050910;28;19924;-58
2023/04/04 03:18:50;;;;;;;;;;;;;;;;;;5051636;28;19916;-59
2023/04/04 03:21:16;;;;;;;;;;;;;;;;;;5051251;28;19978;-59
2023/04/04 03:23:42;;;;;;;;;;;;;;;;;;5050158;28;19980;-59
2023/04/04 03:26:08;;;;;;;;;;;;;;;;;;5051201;28;19967;-58
2023/04/04 03:28:34;;;;;;;;;;;;;;;;;;5051273;28;20402;-56
2023/04/04 03:31:00;;;;;;;;;;;;;;;;;;5050681;28;19936;-58
2023/04/04 03:33:26;;;;;;;;;;;;;;;;;;5051248;28;19982;-58
2023/04/04 03:35:52;;;;;;;;;;;;;;;;;;5050694;28;19920;-58
2023/04/04 03:38:18;;;;;;;;;;;;;;;;;;5050421;28;19928;-57
2023/04/04 03:40:44;;;;;;;;;;;;;;;;;;5051228;28;19917;-58
2023/04/04 03:43:10;;;;;;;;;;;;;;;;;;5051183;28;20016;-58
2023/04/04 03:45:36;;;;;;;;;;;;;;;;;;5050306;28;20349;-57
2023/04/04 03:48:02;;;;;;;;;;;;;;;;;;5051024;28;19924;-57
2023/04/04 03:50:28;;;;;;;;;;;;;;;;;;5051036;28;20259;-59
2023/04/04 03:52:54;;;;;;;;;;;;;;;;;;5050536;28;20040;-59
2023/04/04 03:55:20;;;;;;;;;;;;;;;;;;5050824;28;19970;-59
2023/04/04 03:57:46;;;;;;;;;;;;;;;;;;5051046;28;19917;-59
2023/04/04 04:00:12;;;;;;;;;;;;;;;;;;5050242;28;19916;-58
2023/04/04 04:02:38;;;;;;;;;;;;;;;;;;5051070;28;19916;-59
2023/04/04 04:05:04;;;;;;;;;;;;;;;;;;5050925;28;19920;-58
2023/04/04 04:07:30;;;;;;;;;;;;;;;;;;5050372;28;19979;-58
2023/04/04 04:09:56;;;;;;;;;;;;;;;;;;5050916;28;19916;-58
2023/04/04 04:12:22;;;;;;;;;;;;;;;;;;5050729;28;19974;-57
2023/04/04 04:14:48;;;;;;;;;;;;;;;;;;5050517;28;19928;-59
2023/04/04 04:17:14;;;;;;;;;;;;;;;;;;5050809;28;19921;-56
2023/04/04 04:19:40;;;;;;;;;;;;;;;;;;5050349;28;20422;-59
2023/04/04 04:22:06;;;;;;;;;;;;;;;;;;5050711;28;19924;-59
2023/04/04 04:24:32;;;;;;;;;;;;;;;;;;5050009;28;19920;-58
2023/04/04 04:26:58;;;;;;;;;;;;;;;;;;5050778;28;19917;-59
2023/04/04 04:29:24;;;;;;;;;;;;;;;;;;5050689;28;19962;-59
2023/04/04 04:31:51;;;;;;;;;;;;;;;;;;5050214;28;19966;-58
2023/04/04 04:34:17;;;;;;;;;;;;;;;;;;5051052;28;19959;-57
2023/04/04 04:36:43;;;;;;;;;;;;;;;;;;5050802;28;19920;-55
2023/04/04 04:39:09;;;;;;;;;;;;;;;;;;5050428;28;19917;-58
2023/04/04 04:41:35;;;;;;;;;;;;;;;;;;5050924;28;19938;-59
2023/04/04 04:44:01;;;;;;;;;;;;;;;;;;5050666;28;19927;-58
2023/04/04 04:46:27;;;;;;;;;;;;;;;;;;5050183;28;19925;-58
2023/04/04 04:48:53;;;;;;;;;;;;;;;;;;5051932;28;19916;-59
2023/04/04 04:51:19;;;;;;;;;;;;;;;;;;5053903;28;19921;-59
2023/04/04 04:53:45;;;;;;;;;;;;;;;;;;5053625;28;19947;-59
2023/04/04 04:56:11;;;;;;;;;;;;;;;;;;5054330;28;19916;-58
2023/04/04 04:58:37;;;;;;;;;;;;;;;;;;5054330;28;19947;-58
2023/04/04 05:01:03;;;;;;;;;;;;;;;;;;5041121;28;19921;-60
2023/04/04 05:03:29;;;;;;;;;;;;;;;;;;5053235;28;19920;-59
2023/04/04 05:05:56;;;;;;;;;;;;;;;;;;5053771;28;20230;-60
2023/04/04 05:08:22;;;;;;;;;;;;;;;;;;5053112;28;20228;-59
2023/04/04 05:10:48;;;;;;;;;;;;;;;;;;5054023;28;19917;-58
2023/04/04 05:13:14;;;;;;;;;;;;;;;;;;5036002;28;20505;-58
2023/04/04 05:15:40;;;;;;;;;;;;;;;;;;5053164;28;19921;-59
2023/04/04 05:18:09;;;;;;;;;;;;;;;;;;5053818;28;20003;-59
2023/04/04 05:20:35;;;;;;;;;;;;;;;;;;5053432;28;19916;-59
2023/04/04 05:23:01;;;;;;;;;;;;;;;;;;5053349;28;20003;-59
2023/04/04 05:25:27;;;;;;;;;;;;;;;;;;5053376;28;20032;-59
2023/04/04 05:27:54;;;;;;;;;;;;;;;;;;5053859;28;20287;-58
2023/04/04 05:30:20;;;;;;;;;;;;;;;;;;5052696;28;19964;-59
2023/04/04 05:32:46;;;;;;;;;;;;;;;;;;5053264;28;19971;-58
2023/04/04 05:35:12;;;;;;;;;;;;;;;;;;5053448;28;20035;-57
2023/04/04 05:37:38;;;;;;;;;;;;;;;;;;5052986;28;19918;-58
2023/04/04 05:40:04;;;;;;;;;;;;;;;;;;5053199;28;19921;-58
2023/04/04 05:42:30;;;;;;;;;;;;;;;;;;5053464;28;20397;-59
2023/04/04 05:44:56;;;;;;;;;;;;;;;;;;5052496;28;19924;-58
2023/04/04 05:47:22;;;;;;;;;;;;;;;;;;5053175;28;19943;-58
2023/04/04 05:49:48;;;;;;;;;;;;;;;;;;5053032;28;19920;-59
2023/04/04 05:52:15;;;;;;;;;;;;;;;;;;5052552;28;19916;-59
2023/04/04 05:54:41;;;;;;;;;;;;;;;;;;5053294;28;19920;-58
2023/04/04 05:57:07;;;;;;;;;;;;;;;;;;5053201;28;19928;-58
2023/04/04 05:59:33;;;;;;;;;;;;;;;;;;5051832;28;19974;-59
2023/04/04 06:02:00;;;;;;;;;;;;;;;;;;5052263;28;20016;-61
2023/04/04 06:04:26;;;;;;;;;;;;;;;;;;5051530;28;19917;-61
2023/04/04 06:06:52;;;;;;;;;;;;;;;;;;5051442;28;20275;-62
2023/04/04 06:09:18;;;;;;;;;;;;;;;;;;5052008;28;19920;-61
2023/04/04 06:11:44;;;;;;;;;;;;;;;;;;5034674;28;19916;-61
2023/04/04 06:14:10;;;;;;;;;;;;;;;;;;5050943;28;19964;-63
2023/04/04 06:16:36;;;;;;;;;;;;;;;;;;5042318;28;19963;-62
2023/04/04 06:19:02;;;;;;;;;;;;;;;;;;5052171;28;19921;-62
2023/04/04 06:21:28;;;;;;;;;;;;;;;;;;5051416;28;19921;-63
2023/04/04 06:23:54;;;;;;;;;;;;;;;;;;5051619;28;19921;-63
2023/04/04 06:26:20;;;;;;;;;;;;;;;;;;5051620;28;19947;-59
2023/04/04 06:28:47;;;;;;;;;;;;;;;;;;5051055;28;19925;-61
2023/04/04 06:31:13;;;;;;;;;;;;;;;;;;5052052;28;20446;-63
2023/04/04 06:33:39;;;;;;;;;;;;;;;;;;5051808;28;19973;-63
2023/04/04 06:36:05;;;;;;;;;;;;;;;;;;5051064;28;19963;-62
2023/04/04 06:38:32;;;;;;;;;;;;;;;;;;5047489;28;19917;-59
2023/04/04 06:40:58;;;;;;;;;;;;;;;;;;5042662;28;19916;-62
2023/04/04 06:43:24;;;;;;;;;;;;;;;;;;5041817;28;20461;-62
2023/04/04 06:45:51;;;;;;;;;;;;;;;;;;5044548;28;20693;-63
2023/04/04 06:48:16;;;;;;;;;;;;;;;;;;5036993;28;19944;-64
2023/04/04 06:50:42;;;;;;;;;;;;;;;;;;5048379;28;19916;-65
2023/04/04 06:53:08;;;;;;;;;;;;;;;;;;5045982;28;19920;-63
2023/04/04 06:55:34;;;;;;;;;;;;;;;;;;5046106;28;20384;-63
2023/04/04 06:58:01;;;;;;;;;;;;;;;;;;5040090;28;19920;-63
2023/04/04 07:00:27;;;;;;;;;;;;;;;;;;5050433;28;19932;-62
2023/04/04 07:02:53;;;;;;;;;;;;;;;;;;5048339;28;19917;-62
2023/04/04 07:05:19;;;;;;;;;;;;;;;;;;5049394;28;20401;-62
2023/04/04 07:07:45;;;;;;;;;;;;;;;;;;5050442;28;19916;-63
2023/04/04 07:10:11;;;;;;;;;;;;;;;;;;5050433;28;19935;-61
2023/04/04 07:12:37;;;;;;;;;;;;;;;;;;5048053;28;20306;-62
2023/04/04 07:15:03;;;;;;;;;;;;;;;;;;5050690;28;19928;-61
2023/04/04 07:17:29;;;;;;;;;;;;;;;;;;5049224;28;20066;-61
2023/04/04 07:19:55;;;;;;;;;;;;;;;;;;5030984;28;19916;-62
2023/04/04 07:22:21;;;;;;;;;;;;;;;;;;5045227;28;19944;-62
2023/04/04 07:24:47;;;;;;;;;;;;;;;;;;5050015;28;19924;-62
2023/04/04 07:27:14;;;;;;;;;;;;;;;;;;5049516;28;20033;-58
2023/04/04 07:29:40;;;;;;;;;;;;;;;;;;5043394;28;19921;-58
2023/04/04 07:32:06;;;;;;;;;;;;;;;;;;5042154;28;19978;-60
2023/04/04 07:34:35;;;;;;;;;;;;;;;;;;5043541;28;19921;-62
2023/04/04 07:37:01;;;;;;;;;;;;;;;;;;5048546;28;19921;-63
2023/04/04 07:39:27;;;;;;;;;;;;;;;;;;5045568;28;20303;-62
2023/04/04 07:41:53;;;;;;;;;;;;;;;;;;5044272;28;19958;-62
2023/04/04 07:44:20;;;;;;;;;;;;;;;;;;5046846;28;20301;-59
2023/04/04 07:46:46;;;;;;;;;;;;;;;;;;5049505;28;20062;-60
2023/04/04 07:49:12;;;;;;;;;;;;;;;;;;5044864;28;20391;-59
2023/04/04 07:51:38;;;;;;;;;;;;;;;;;;5030470;28;19916;-60
2023/04/04 07:54:04;;;;;;;;;;;;;;;;;;5049627;28;19923;-61
2023/04/04 07:56:30;;;;;;;;;;;;;;;;;;5047837;28;19944;-63
2023/04/04 07:58:56;;;;;;;;;;;;;;;;;;5042103;28;19996;-62
2023/04/04 08:01:22;;;;;;;;;;;;;;;;;;5052338;28;19925;-61
2023/04/04 08:03:49;;;;;;;;;;;;;;;;;;5037338;28;19924;-61
2023/04/04 08:06:15;;;;;;;;;;;;;;;;;;5049875;28;20047;-61
2023/04/04 08:08:41;;;;;;;;;;;;;;;;;;5047322;28;20575;-60
2023/04/04 08:11:07;;;;;;;;;;;;;;;;;;5044812;28;19921;-59
2023/04/04 08:13:33;;;;;;;;;;;;;;;;;;5045874;28;19924;-60
2023/04/04 08:16:00;;;;;;;;;;;;;;;;;;5049602;28;19974;-60
2023/04/04 08:18:26;;;;;;;;;;;;;;;;;;5046180;28;19925;-62
2023/04/04 08:20:52;;;;;;;;;;;;;;;;;;5048776;28;20015;-61
2023/04/04 08:23:18;;;;;;;;;;;;;;;;;;5040944;28;19929;-62
2023/04/04 08:25:44;;;;;;;;;;;;;;;;;;5047664;28;19928;-61
2023/04/04 08:28:11;;;;;;;;;;;;;;;;;;5043398;28;19924;-63
2023/04/04 08:30:37;;;;;;;;;;;;;;;;;;5059509;28;19916;-62
2023/04/04 08:33:03;;;;;;;;;;;;;;;;;;5053914;28;19916;-62
2023/04/04 08:35:29;;;;;;;;;;;;;;;;;;5045182;28;19924;-62
2023/04/04 08:37:56;;;;;;;;;;;;;;;;;;5054354;28;19925;-62
2023/04/04 08:40:22;;;;;;;;;;;;;;;;;;5050067;28;19927;-62
2023/04/04 08:42:48;;;;;;;;;;;;;;;;;;5045898;28;19978;-63
2023/04/04 08:45:14;;;;;;;;;;;;;;;;;;5050164;28;20363;-56
2023/04/04 08:47:40;;;;;;;;;;;;;;;;;;5051374;28;20051;-59
2023/04/04 08:50:06;;;;;;;;;;;;;;;;;;5047189;28;19928;-60
2023/04/04 08:52:32;;;;;;;;;;;;;;;;;;5062853;28;19920;-59
2023/04/04 08:54:58;;;;;;;;;;;;;;;;;;5035859;28;19928;-59
2023/04/04 08:57:24;;;;;;;;;;;;;;;;;;5046201;28;19917;-60
2023/04/04 08:59:50;;;;;;;;;;;;;;;;;;5041075;28;20011;-59
2023/04/04 09:02:16;;;;;;;;;;;;;;;;;;5045848;28;19916;-59
2023/04/04 09:04:42;;;;;;;;;;;;;;;;;;5051423;28;19917;-61
2023/04/04 09:07:08;;;;;;;;;;;;;;;;;;5044861;28;19939;-62
2023/04/04 09:09:34;;;;;;;;;;;;;;;;;;5052068;28;19960;-61
2023/04/04 09:12:00;;;;;;;;;;;;;;;;;;5049220;28;21054;-61
2023/04/04 09:14:26;;;;;;;;;;;;;;;;;;5049066;28;19921;-61
2023/04/04 09:16:52;;;;;;;;;;;;;;;;;;5050942;28;19920;-61
2023/04/04 09:19:18;;;;;;;;;;;;;;;;;;5051742;28;19921;-62
2023/04/04 09:21:44;;;;;;;;;;;;;;;;;;5051721;28;20442;-60
2023/04/04 09:24:10;;;;;;;;;;;;;;;;;;5048037;28;20108;-61
2023/04/04 09:26:36;;;;;;;;;;;;;;;;;;5053324;28;19931;-61
2023/04/04 09:29:02;;;;;;;;;;;;;;;;;;5044856;28;19920;-62
2023/04/04 09:31:28;;;;;;;;;;;;;;;;;;5052342;28;19921;-62
2023/04/04 09:33:54;;;;;;;;;;;;;;;;;;5052648;28;19986;-63
2023/04/04 09:36:20;;;;;;;;;;;;;;;;;;5045590;28;19920;-62
2023/04/04 09:38:48;;;;;;;;;;;;;;;;;;5050346;28;19924;-61
2023/04/04 09:41:14;;;;;;;;;;;;;;;;;;5051505;28;19927;-62
2023/04/04 09:43:40;;;;;;;;;;;;;;;;;;5052538;28;19917;-60
2023/04/04 09:46:06;;;;;;;;;;;;;;;;;;5051742;28;20312;-62
2023/04/04 09:48:33;;;;;;;;;;;;;;;;;;5051481;28;20298;-61
2023/04/04 09:50:59;;;;;;;;;;;;;;;;;;5052311;28;20377;-61
2023/04/04 09:53:25;;;;;;;;;;;;;;;;;;5051900;28;19921;-62
2023/04/04 09:55:51;;;;;;;;;;;;;;;;;;5051475;28;19927;-62
2023/04/04 09:58:17;;;;;;;;;;;;;;;;;;5051791;28;19917;-62
2023/04/04 10:00:43;;;;;;;;;;;;;;;;;;5052101;28;19927;-62
2023/04/04 10:03:09;;;;;;;;;;;;;;;;;;5051354;28;20398;-62
2023/04/04 10:05:35;;;;;;;;;;;;;;;;;;5051625;28;19970;-63
2023/04/04 10:08:02;;;;;;;;;;;;;;;;;;5052476;28;19921;-63
2023/04/04 10:10:30;;;;;;;;;;;;;;;;;;5051303;28;19955;-63
2023/04/04 10:12:56;;;;;;;;;;;;;;;;;;5051863;28;19923;-61
2023/04/04 10:15:23;;;;;;;;;;;;;;;;;;5051351;28;19951;-62
2023/04/04 10:17:49;;;;;;;;;;;;;;;;;;5050756;28;19917;-62
2023/04/04 10:20:15;;;;;;;;;;;;;;;;;;5051535;28;19920;-63
2023/04/04 10:22:40;;;;;;;;;;;;;;;;;;5051350;28;19928;-63
2023/04/04 10:25:06;;;;;;;;;;;;;;;;;;5050565;28;19932;-62
2023/04/04 10:27:32;;;;;;;;;;;;;;;;;;5051750;28;19917;-62
2023/04/04 10:29:58;;;;;;;;;;;;;;;;;;5051210;28;19956;-62
2023/04/04 10:32:24;;;;;;;;;;;;;;;;;;5051207;28;20298;-59
2023/04/04 10:34:50;;;;;;;;;;;;;;;;;;5051420;28;19947;-59
2023/04/04 10:37:16;;;;;;;;;;;;;;;;;;5051657;28;19974;-60
2023/04/04 10:39:43;;;;;;;;;;;;;;;;;;5050978;28;19964;-60
2023/04/04 10:42:09;;;;;;;;;;;;;;;;;;5051460;28;20355;-60
2023/04/04 10:44:35;;;;;;;;;;;;;;;;;;5051670;28;19924;-61
2023/04/04 10:47:02;;;;;;;;;;;;;;;;;;5050721;28;19968;-60
2023/04/04 10:49:28;;;;;;;;;;;;;;;;;;5051417;28;19928;-60
2023/04/04 10:51:54;;;;;;;;;;;;;;;;;;5051503;28;20316;-60
2023/04/04 10:54:20;;;;;;;;;;;;;;;;;;5051000;28;19920;-63
2023/04/04 10:56:46;;;;;;;;;;;;;;;;;;5050555;28;19917;-63
2023/04/04 10:59:12;;;;;;;;;;;;;;;;;;5033460;28;19921;-63
2023/04/04 11:01:38;;;;;;;;;;;;;;;;;;5051328;28;19916;-63
2023/04/04 11:04:04;;;;;;;;;;;;;;;;;;5050489;28;19921;-63
2023/04/04 11:06:30;;;;;;;;;;;;;;;;;;5050938;28;19924;-63
2023/04/04 11:08:56;;;;;;;;;;;;;;;;;;5051073;28;20735;-63
2023/04/04 11:11:22;;;;;;;;;;;;;;;;;;5050275;28;19925;-63
2023/04/04 11:13:48;;;;;;;;;;;;;;;;;;5051193;28;19917;-63
2023/04/04 11:16:15;;;;;;;;;;;;;;;;;;5051221;28;20340;-62
2023/04/04 11:18:40;;;;;;;;;;;;;;;;;;5050260;28;19927;-63
2023/04/04 11:21:06;;;;;;;;;;;;;;;;;;5051075;28;19917;-63
2023/04/04 11:23:33;;;;;;;;;;;;;;;;;;5032417;28;19921;-62
2023/04/04 11:25:59;;;;;;;;;;;;;;;;;;5049521;28;20383;-63
2023/04/04 11:28:25;;;;;;;;;;;;;;;;;;5050884;28;19921;-63
2023/04/04 11:30:52;;;;;;;;;;;;;;;;;;5050632;28;19925;-63
2023/04/04 11:33:18;;;;;;;;;;;;;;;;;;5049999;28;19921;-63
2023/04/04 11:35:44;;;;;;;;;;;;;;;;;;5050870;28;19943;-62
2023/04/04 11:38:10;;;;;;;;;;;;;;;;;;5050599;28;19916;-63
2023/04/04 11:40:35;;;;;;;;;;;;;;;;;;5049860;28;19939;-63
2023/04/04 11:43:03;;;;;;;;;;;;;;;;;;5050338;28;19971;-63
2023/04/04 11:45:29;;;;;;;;;;;;;;;;;;5050159;28;20046;-63
2023/04/04 11:47:55;;;;;;;;;;;;;;;;;;5050023;28;19921;-63
2023/04/04 11:50:22;;;;;;;;;;;;;;;;;;5050208;28;19967;-63
2023/04/04 11:52:48;;;;;;;;;;;;;;;;;;5050624;28;20343;-63
2023/04/04 11:55:14;;;;;;;;;;;;;;;;;;5049804;28;20323;-63
2023/04/04 11:57:40;;;;;;;;;;;;;;;;;;5051193;28;20090;-63
2023/04/04 12:00:07;;;;;;;;;;;;;;;;;;5054952;28;20015;-63
2023/04/04 12:02:33;;;;;;;;;;;;;;;;;;5054054;28;19944;-63
2023/04/04 12:04:59;;;;;;;;;;;;;;;;;;5054688;28;19921;-62
2023/04/04 12:07:25;;;;;;;;;;;;;;;;;;5054940;28;19963;-62
2023/04/04 12:09:51;;;;;;;;;;;;;;;;;;5053819;28;19917;-62
2023/04/04 12:12:17;;;;;;;;;;;;;;;;;;5054457;28;19985;-62
2023/04/04 12:14:43;;;;;;;;;;;;;;;;;;5054272;28;19996;-63
2023/04/04 12:17:09;;;;;;;;;;;;;;;;;;5053409;28;20360;-62
2023/04/04 12:19:35;;;;;;;;;;;;;;;;;;5054542;28;19920;-62
2023/04/04 12:22:01;;;;;;;;;;;;;;;;;;5054122;28;20027;-61
2023/04/04 12:24:27;;;;;;;;;;;;;;;;;;5053891;28;19967;-61
2023/04/04 12:26:54;;;;;;;;;;;;;;;;;;5053739;28;19924;-62
2023/04/04 12:29:20;;;;;;;;;;;;;;;;;;5054401;28;20034;-62
2023/04/04 12:31:46;;;;;;;;;;;;;;;;;;5053863;28;19917;-63
2023/04/04 12:34:12;;;;;;;;;;;;;;;;;;5054215;28;20581;-63
2023/04/04 12:36:40;;;;;;;;;;;;;;;;;;5054356;28;19925;-63
2023/04/04 12:39:07;;;;;;;;;;;;;;;;;;5053423;28;19924;-62
2023/04/04 12:41:33;;;;;;;;;;;;;;;;;;5053933;28;20007;-62
2023/04/04 12:43:59;;;;;;;;;;;;;;;;;;5054419;28;19928;-63
2023/04/04 12:46:25;;;;;;;;;;;;;;;;;;5052408;28;20487;-63
2023/04/04 12:48:51;;;;;;;;;;;;;;;;;;5053454;28;19943;-63
2023/04/04 12:51:17;;;;;;;;;;;;;;;;;;5053717;28;19921;-63
2023/04/04 12:53:43;;;;;;;;;;;;;;;;;;5052797;28;19916;-63
2023/04/04 12:56:09;;;;;;;;;;;;;;;;;;5053838;28;19952;-63
2023/04/04 12:58:36;;;;;;;;;;;;;;;;;;5053294;28;19927;-63
2023/04/04 13:01:02;;;;;;;;;;;;;;;;;;5053175;28;19967;-62
2023/04/04 13:03:28;;;;;;;;;;;;;;;;;;5053870;28;20025;-63
2023/04/04 13:05:54;;;;;;;;;;;;;;;;;;5053551;28;19940;-63
2023/04/04 13:08:20;;;;;;;;;;;;;;;;;;5052843;28;20282;-63
2023/04/04 13:10:46;;;;;;;;;;;;;;;;;;5052332;28;19927;-63
2023/04/04 13:13:12;;;;;;;;;;;;;;;;;;5053472;28;19920;-63
2023/04/04 13:15:38;;;;;;;;;;;;;;;;;;5052983;28;19917;-63
2023/04/04 13:18:04;;;;;;;;;;;;;;;;;;5052960;28;20474;-63
2023/04/04 13:20:30;;;;;;;;;;;;;;;;;;5053465;28;19967;-63
2023/04/04 13:22:55;;;;;;;;;;;;;;;;;;5052233;28;19947;-63
2023/04/04 13:25:21;;;;;;;;;;;;;;;;;;5053155;28;19921;-64
2023/04/04 13:27:47;;;;;;;;;;;;;;;;;;5053637;28;19921;-63
2023/04/04 13:30:13;;;;;;;;;;;;;;;;;;5052583;28;19920;-63
2023/04/04 13:32:39;;;;;;;;;;;;;;;;;;5053380;28;19967;-62
2023/04/04 13:35:05;;;;;;;;;;;;;;;;;;5052729;28;19956;-63
2023/04/04 13:37:31;;;;;;;;;;;;;;;;;;5052362;28;19971;-63
2023/04/04 13:39:57;;;;;;;;;;;;;;;;;;5052679;28;19917;-63
2023/04/04 13:42:28;;;;;;;;;;;;;;;;;;5052902;28;19917;-63
2023/04/04 13:44:54;;;;;;;;;;;;;;;;;;5051889;28;19943;-64
2023/04/04 13:47:21;;;;;;;;;;;;;;;;;;5052744;28;20505;-63
2023/04/04 13:49:47;;;;;;;;;;;;;;;;;;5052664;28;19924;-63
2023/04/04 13:52:13;;;;;;;;;;;;;;;;;;5052219;28;19920;-63
2023/04/04 13:54:39;;;;;;;;;;;;;;;;;;5052732;28;19956;-63
2023/04/04 13:57:05;;;;;;;;;;;;;;;;;;5052237;28;19920;-63
2023/04/04 13:59:31;;;;;;;;;;;;;;;;;;5051652;28;19923;-63
2023/04/04 14:01:57;;;;;;;;;;;;;;;;;;5052426;28;20004;-64
2023/04/04 14:04:23;;;;;;;;;;;;;;;;;;5052478;28;19964;-63
2023/04/04 14:06:49;;;;;;;;;;;;;;;;;;5052200;28;19978;-63
2023/04/04 14:09:15;;;;;;;;;;;;;;;;;;5052705;28;19916;-63
2023/04/04 14:11:41;;;;;;;;;;;;;;;;;;5052488;28;20007;-63
2023/04/04 14:14:07;;;;;;;;;;;;;;;;;;5052466;28;20302;-63
2023/04/04 14:16:33;;;;;;;;;;;;;;;;;;5051838;28;19916;-61
2023/04/04 14:18:59;;;;;;;;;;;;;;;;;;5052455;28;19970;-61
2023/04/04 14:21:25;;;;;;;;;;;;;;;;;;5051778;28;20011;-61
2023/04/04 14:23:51;;;;;;;;;;;;;;;;;;5051426;28;19928;-61
2023/04/04 14:26:17;;;;;;;;;;;;;;;;;;5052174;28;19925;-61
2023/04/04 14:28:43;;;;;;;;;;;;;;;;;;5052216;28;19924;-61
2023/04/04 14:31:10;;;;;;;;;;;;;;;;;;5051502;28;19951;-61
2023/04/04 14:33:36;;;;;;;;;;;;;;;;;;5051952;28;19916;-61
2023/04/04 14:36:02;;;;;;;;;;;;;;;;;;5052062;28;19916;-61
2023/04/04 14:38:28;;;;;;;;;;;;;;;;;;5051437;28;19916;-61
2023/04/04 14:40:53;;;;;;;;;;;;;;;;;;5051946;28;19947;-61
2023/04/04 14:43:19;;;;;;;;;;;;;;;;;;5051870;28;20007;-61
2023/04/04 14:45:45;;;;;;;;;;;;;;;;;;5051139;28;19927;-61
2023/04/04 14:48:11;;;;;;;;;;;;;;;;;;5051895;28;19920;-63
2023/04/04 14:50:39;;;;;;;;;;;;;;;;;;5034218;28;19916;-63
2023/04/04 14:53:05;;;;;;;;;;;;;;;;;;5051191;28;19960;-63
2023/04/04 14:55:31;;;;;;;;;;;;;;;;;;5051928;28;20240;-63
2023/04/04 14:57:57;;;;;;;;;;;;;;;;;;5051789;28;19923;-63
2023/04/04 15:00:23;;;;;;;;;;;;;;;;;;5051233;28;19939;-63
2023/04/04 15:02:49;;;;;;;;;;;;;;;;;;5051668;28;19917;-63
2023/04/04 15:05:15;;;;;;;;;;;;;;;;;;5051473;28;20369;-63
2023/04/04 15:07:41;;;;;;;;;;;;;;;;;;5051007;28;19992;-63
2023/04/04 15:10:07;;;;;;;;;;;;;;;;;;5051425;28;20322;-63
2023/04/04 15:12:33;;;;;;;;;;;;;;;;;;5051287;28;20051;-63
2023/04/04 15:14:59;;;;;;;;;;;;;;;;;;5050793;28;19917;-63
2023/04/04 15:17:25;;;;;;;;;;;;;;;;;;5051387;28;19979;-63
2023/04/04 15:19:51;;;;;;;;;;;;;;;;;;5051186;28;19920;-63
2023/04/04 15:22:17;;;;;;;;;;;;;;;;;;5050466;28;19999;-63
2023/04/04 15:24:43;;;;;;;;;;;;;;;;;;5051053;28;19986;-63
2023/04/04 15:27:09;;;;;;;;;;;;;;;;;;5051177;28;19925;-63
2023/04/04 15:29:35;;;;;;;;;;;;;;;;;;5050453;28;20560;-63
2023/04/04 15:32:01;;;;;;;;;;;;;;;;;;5050529;28;19939;-63
2023/04/04 15:34:27;;;;;;;;;;;;;;;;;;5051130;28;20239;-63
2023/04/04 15:36:54;;;;;;;;;;;;;;;;;;5032845;28;19920;-63
2023/04/04 15:39:20;;;;;;;;;;;;;;;;;;5051181;28;19924;-63
2023/04/04 15:41:46;;;;;;;;;;;;;;;;;;5050961;28;19921;-63
2023/04/04 15:44:12;;;;;;;;;;;;;;;;;;5050199;28;19923;-63
2023/04/04 15:46:38;;;;;;;;;;;;;;;;;;5051047;28;19921;-63
2023/04/04 15:49:04;;;;;;;;;;;;;;;;;;5050953;28;19923;-63
2023/04/04 15:51:31;;;;;;;;;;;;;;;;;;5050501;28;20306;-63
2023/04/04 15:53:57;;;;;;;;;;;;;;;;;;5051095;28;19970;-63
2023/04/04 15:56:23;;;;;;;;;;;;;;;;;;5051004;28;19924;-63
2023/04/04 15:58:49;;;;;;;;;;;;;;;;;;5050053;28;19917;-63
2023/04/04 16:01:15;;;;;;;;;;;;;;;;;;5050815;28;19962;-63
2023/04/04 16:03:41;;;;;;;;;;;;;;;;;;5050920;28;19927;-63
2023/04/04 16:06:11;;;;;;;;;;;;;;;;;;5050258;28;19975;-63
2023/04/04 16:08:37;;;;;;;;;;;;;;;;;;5050945;28;20446;-63
2023/04/04 16:11:03;;;;;;;;;;;;;;;;;;5050647;28;19921;-63
2023/04/04 16:13:29;;;;;;;;;;;;;;;;;;5050313;28;19979;-63
2023/04/04 16:15:55;;;;;;;;;;;;;;;;;;5050332;28;19939;-63
2023/04/04 16:18:21;;;;;;;;;;;;;;;;;;5050728;28;19970;-63
2023/04/04 16:20:47;;;;;;;;;;;;;;;;;;5050130;28;19970;-63
2023/04/04 16:23:13;;;;;;;;;;;;;;;;;;5050364;28;19951;-63
2023/04/04 16:25:39;;;;;;;;;;;;;;;;;;5050279;28;19991;-63
2023/04/04 16:28:05;;;;;;;;;;;;;;;;;;5050187;28;19924;-63
2023/04/04 16:30:31;;;;;;;;;;;;;;;;;;5050580;28;19939;-63
2023/04/04 16:32:57;;;;;;;;;;;;;;;;;;5050789;28;20015;-63
2023/04/04 16:35:23;;;;;;;;;;;;;;;;;;5050041;28;20055;-63
2023/04/04 16:37:49;;;;;;;;;;;;;;;;;;5050417;28;20010;-63